Time;durP1;ratioP1;P1;durP2;ratioP2;P2;SDS_P1;SDS_P2;PMS_P1;PMS_P2;Temp;Humidity;BMP_temperature;BMP_pressure;BME280_temperature;BME280_humidity;BME280_pressure;Samples;Min_cycle;Max_cycle;Signal;HPM_P1;HPM_P2
2022/01/05 00:01:31;;;;;;;6.15;5.08;;;;;;;11.59;59.41;97936.45;1697078;83;21085;-63
2022/01/05 00:03:57;;;;;;;6.37;4.78;;;;;;;11.60;59.39;97930.61;1730575;81;21042;-62
2022/01/05 00:06:24;;;;;;;6.58;4.75;;;;;;;11.58;59.37;97922.04;1741367;81;21307;-64
2022/01/05 00:08:50;;;;;;;6.17;4.92;;;;;;;11.58;59.39;97940.12;1731313;82;21042;-62
2022/01/05 00:11:16;;;;;;;6.90;4.97;;;;;;;11.58;59.34;97937.47;1688417;83;21077;-61
2022/01/05 00:13:44;;;;;;;6.25;4.90;;;;;;;11.58;59.35;97919.38;1701044;82;21013;-63
2022/01/05 00:16:12;;;;;;;7.37;5.33;;;;;;;11.58;59.33;97923.37;1706302;83;21069;-63
2022/01/05 00:18:38;;;;;;;4.28;3.85;;;;;;;11.57;59.33;97933.20;1724223;82;21231;-63
2022/01/05 00:21:05;;;;;;;5.17;4.33;;;;;;;11.56;59.33;97911.61;1745258;80;21034;-62
2022/01/05 00:23:32;;;;;;;5.75;4.97;;;;;;;11.55;59.33;97916.65;1747462;80;21155;-64
2022/01/05 00:26:01;;;;;;;5.70;4.72;;;;;;;11.55;59.33;97908.67;1729703;82;21757;-62
2022/01/05 00:28:26;;;;;;;6.78;4.72;;;;;;;11.56;59.32;97908.95;1696399;83;21050;-62
2022/01/05 00:30:52;;;;;;;5.67;4.60;;;;;;;11.56;59.32;97900.17;1698791;83;21108;-62
2022/01/05 00:33:19;;;;;;;5.80;4.80;;;;;;;11.55;59.30;97897.20;1725652;82;21554;-62
2022/01/05 00:35:45;;;;;;;5.90;4.58;;;;;;;11.55;59.30;97882.58;1729958;82;21066;-62
2022/01/05 00:38:11;;;;;;;6.60;4.55;;;;;;;11.55;59.29;97879.91;1734335;82;23330;-63
2022/01/05 00:40:38;;;;;;;5.40;4.47;;;;;;;11.52;59.30;97885.16;1732721;82;21011;-63
2022/01/05 00:43:05;;;;;;;5.58;4.80;;;;;;;11.55;59.28;97877.25;1689025;83;21014;-63
2022/01/05 00:45:32;;;;;;;5.42;4.70;;;;;;;11.55;59.29;97889.22;1729566;82;21495;-63
2022/01/05 00:47:58;;;;;;;4.85;4.33;;;;;;;11.54;59.28;97885.76;1733824;82;21048;-62
2022/01/05 00:50:25;;;;;;;5.75;4.67;;;;;;;11.53;59.29;97870.84;1702617;83;21545;-61
2022/01/05 00:52:52;;;;;;;6.37;4.58;;;;;;;11.53;59.28;97862.03;1728308;82;21015;-63
2022/01/05 00:55:19;;;;;;;6.03;4.90;;;;;;;11.54;59.26;97865.81;1688963;83;21053;-62
2022/01/05 00:57:46;;;;;;;6.35;4.62;;;;;;;11.53;59.27;97864.70;1730483;82;21006;-63
2022/01/05 01:00:14;;;;;;;5.03;4.45;;;;;;;11.52;59.27;97849.27;1733830;82;21018;-63
2022/01/05 01:02:41;;;;;;;4.95;4.20;;;;;;;11.53;59.26;97842.92;1727491;82;21948;-63
2022/01/05 01:05:08;;;;;;;5.42;4.78;;;;;;;11.52;59.24;97844.47;1731890;80;21097;-64
2022/01/05 01:07:34;;;;;;;5.53;4.40;;;;;;;11.53;59.23;97838.11;1692285;83;21046;-64
2022/01/05 01:10:03;;;;;;;4.97;4.22;;;;;;;11.53;59.26;97840.77;1726585;82;21566;-62
2022/01/05 01:12:32;;;;;;;5.95;4.45;;;;;;;11.54;59.23;97835.75;1735829;82;21057;-64
2022/01/05 01:14:59;;;;;;;5.12;4.05;;;;;;;11.54;59.22;97840.55;1741490;82;21823;-62
2022/01/05 01:17:25;;;;;;;5.97;4.90;;;;;;;11.53;59.21;97832.78;1690091;82;21006;-62
2022/01/05 01:19:52;;;;;;;4.67;4.05;;;;;;;11.54;59.21;97837.89;1723157;82;21488;-62
2022/01/05 01:22:19;;;;;;;5.72;4.75;;;;;;;11.54;59.22;97824.59;1724356;82;21106;-62
2022/01/05 01:24:45;;;;;;;5.05;4.53;;;;;;;11.55;59.19;97832.05;1688177;83;21029;-63
2022/01/05 01:27:12;;;;;;;4.78;4.28;;;;;;;11.54;59.18;97817.95;1700497;83;21553;-64
2022/01/05 01:29:39;;;;;;;5.17;4.65;;;;;;;11.55;59.18;97820.08;1701114;83;21041;-63
2022/01/05 01:32:07;;;;;;;4.87;4.42;;;;;;;11.55;59.15;97804.96;1738347;82;21494;-61
2022/01/05 01:34:33;;;;;;;5.80;4.53;;;;;;;11.55;59.15;97803.63;1726529;82;21093;-64
2022/01/05 01:36:59;;;;;;;4.70;4.03;;;;;;;11.55;59.15;97789.50;1741356;82;21506;-63
2022/01/05 01:39:26;;;;;;;4.80;4.10;;;;;;;11.55;59.12;97789.00;1725094;82;21066;-62
2022/01/05 01:41:52;;;;;;;5.00;4.35;;;;;;;11.56;59.11;97789.28;1729993;82;21525;-63
2022/01/05 01:44:19;;;;;;;5.72;4.97;;;;;;;11.56;59.12;97787.15;1693828;83;21089;-62
2022/01/05 01:46:45;;;;;;;5.03;4.50;;;;;;;11.56;59.11;97764.55;1739826;82;21104;-62
2022/01/05 01:49:11;;;;;;;5.95;4.80;;;;;;;11.55;59.10;97774.38;1732004;82;21041;-62
2022/01/05 01:51:37;;;;;;;5.50;4.60;;;;;;;11.56;59.10;97770.67;1749023;82;21125;-62
2022/01/05 01:54:04;;;;;;;5.67;4.35;;;;;;;11.57;59.09;97762.16;1698727;83;21045;-62
2022/01/05 01:56:33;;;;;;;5.25;4.47;;;;;;;11.57;59.08;97768.81;1723779;82;21074;-63
2022/01/05 01:59:02;;;;;;;5.87;4.47;;;;;;;11.57;59.10;97760.34;1715910;82;21050;-62
2022/01/05 02:01:29;;;;;;;7.17;4.78;;;;;;;11.56;59.06;97744.08;1714455;82;21037;-66
2022/01/05 02:03:55;;;;;;;4.53;3.83;;;;;;;11.56;59.06;97748.06;1734267;82;21082;-62
2022/01/05 02:06:22;;;;;;;6.50;4.65;;;;;;;11.57;59.05;97744.87;1727631;80;21047;-62
2022/01/05 02:08:49;;;;;;;5.42;4.50;;;;;;;11.57;59.05;97753.69;1724942;80;21530;-62
2022/01/05 02:11:15;;;;;;;6.30;4.40;;;;;;;11.58;59.05;97745.19;1730416;81;21019;-62
2022/01/05 02:13:41;;;;;;;4.83;4.30;;;;;;;11.58;59.05;97757.16;1738258;82;20995;-63
2022/01/05 02:16:09;;;;;;;4.85;4.28;;;;;;;11.58;59.03;97735.88;1726220;82;22333;-61
2022/01/05 02:21:12;;;;;;;4.95;4.22;;;;;;;11.58;59.02;97734.55;1694517;84;21065;-61
2022/01/05 02:23:38;;;;;;;5.03;4.28;;;;;;;11.57;59.02;97732.41;1731271;82;21046;-62
2022/01/05 02:26:06;;;;;;;4.62;4.03;;;;;;;11.58;59.03;97731.36;1719895;82;21074;-62
2022/01/05 02:28:33;;;;;;;5.55;4.67;;;;;;;11.57;59.03;97737.73;1686874;83;21912;-61
2022/01/05 02:31:00;;;;;;;4.85;4.35;;;;;;;11.58;59.02;97734.02;1680170;84;21057;-61
2022/01/05 02:33:26;;;;;;;4.50;4.10;;;;;;;11.58;59.01;97749.98;1700950;84;21217;-63
2022/01/05 02:35:53;;;;;;;5.78;4.50;;;;;;;11.59;59.01;97717.57;1716481;82;21015;-63
2022/01/05 02:38:20;;;;;;;4.97;4.30;;;;;;;11.59;58.99;97717.05;1697669;84;21010;-63
2022/01/05 02:40:50;;;;;;;5.87;4.85;;;;;;;11.59;58.99;97717.05;1685657;84;21842;-62
2022/01/05 02:43:18;;;;;;;5.03;4.53;;;;;;;11.59;58.98;97712.25;1685279;84;21105;-62
2022/01/05 02:45:44;;;;;;;4.90;4.10;;;;;;;11.59;58.98;97719.70;1717987;82;21089;-61
2022/01/05 02:48:11;;;;;;;5.25;4.40;;;;;;;11.60;58.96;97716.52;1733583;82;21483;-62
2022/01/05 02:50:38;;;;;;;5.45;4.17;;;;;;;11.60;58.96;97713.86;1727952;82;21062;-62
2022/01/05 02:53:04;;;;;;;5.33;4.15;;;;;;;11.59;58.96;97710.40;1730305;82;21092;-62
2022/01/05 02:55:32;;;;;;;4.80;4.15;;;;;;;11.60;58.94;97710.67;1686332;83;21285;-62
2022/01/05 02:58:00;;;;;;;4.35;3.95;;;;;;;11.61;58.94;97705.66;1706640;82;21041;-63
2022/01/05 03:00:27;;;;;;;5.20;4.50;;;;;;;11.60;58.95;97709.88;1706302;82;20998;-62
2022/01/05 03:02:53;;;;;;;5.75;5.10;;;;;;;11.60;58.96;97714.66;1712378;82;21041;-61
2022/01/05 03:05:19;;;;;;;5.05;4.40;;;;;;;11.59;58.94;97699.76;1706938;82;21287;-62
2022/01/05 03:07:48;;;;;;;6.42;4.22;;;;;;;11.60;58.93;97700.04;1714128;82;21053;-63
2022/01/05 03:10:14;;;;;;;5.92;4.80;;;;;;;11.60;58.93;97702.70;1709674;82;21104;-61
2022/01/05 03:12:44;;;;;;;5.17;4.58;;;;;;;11.61;58.92;97707.52;1712857;82;21517;-62
2022/01/05 03:15:12;;;;;;;5.03;4.47;;;;;;;11.61;58.91;97711.52;1707402;82;21085;-63
2022/01/05 03:17:39;;;;;;;5.20;4.70;;;;;;;11.61;58.90;97706.19;1702441;82;21159;-61
2022/01/05 03:20:07;;;;;;;5.22;4.70;;;;;;;11.61;58.91;97713.64;1743144;82;21641;-63
2022/01/05 03:22:36;;;;;;;5.00;4.08;;;;;;;11.61;58.87;97699.55;1711724;82;21141;-64
2022/01/05 03:25:03;;;;;;;5.95;4.47;;;;;;;11.62;58.90;97705.14;1737843;82;21064;-62
2022/01/05 03:27:29;;;;;;;5.00;4.20;;;;;;;11.61;58.90;97712.31;1732145;82;21018;-63
2022/01/05 03:29:56;;;;;;;4.70;4.22;;;;;;;11.61;58.87;97706.99;1748629;82;21585;-63
2022/01/05 03:32:24;;;;;;;5.17;4.50;;;;;;;11.62;58.87;97707.80;1734365;82;21022;-63
2022/01/05 03:34:52;;;;;;;5.10;4.58;;;;;;;11.63;58.86;97708.60;1703681;82;21111;-62
2022/01/05 03:37:18;;;;;;;4.62;3.98;;;;;;;11.63;58.86;97705.94;1702145;82;21065;-62
2022/01/05 03:39:46;;;;;;;5.00;4.50;;;;;;;11.63;58.87;97697.47;1733578;82;21097;-62
2022/01/05 03:42:12;;;;;;;4.72;4.22;;;;;;;11.63;58.85;97702.79;1747526;82;21925;-63
2022/01/05 03:44:39;;;;;;;5.42;4.20;;;;;;;11.64;58.86;97707.05;1731681;82;21073;-63
2022/01/05 03:47:05;;;;;;;6.12;3.87;;;;;;;11.64;58.83;97701.73;1750759;82;21542;-63
2022/01/05 03:49:32;;;;;;;4.65;4.15;;;;;;;11.65;58.84;97717.16;1745931;82;21292;-62
2022/01/05 03:51:58;;;;;;;5.00;4.03;;;;;;;11.66;58.85;97702.84;1744845;82;21070;-63
2022/01/05 03:54:25;;;;;;;4.40;3.62;;;;;;;11.66;58.81;97700.98;1742257;82;22290;-62
2022/01/05 03:56:51;;;;;;;5.00;4.03;;;;;;;11.65;58.82;97696.72;1743724;81;20998;-64
2022/01/05 03:59:17;;;;;;;4.83;4.05;;;;;;;11.67;58.81;97695.17;1752285;81;21511;-62
2022/01/05 04:01:44;;;;;;;4.67;4.10;;;;;;;11.66;58.81;97686.36;1750699;81;21030;-62
2022/01/05 04:04:10;;;;;;;4.90;3.90;;;;;;;11.67;58.80;97680.55;1750947;80;21089;-62
2022/01/05 04:06:37;;;;;;;4.97;4.37;;;;;;;11.68;58.78;97679.49;1753914;80;21995;-62
2022/01/05 04:09:03;;;;;;;6.12;4.17;;;;;;;11.68;58.76;97669.66;1703450;82;21012;-62
2022/01/05 04:11:30;;;;;;;5.12;4.15;;;;;;;11.69;58.77;97669.16;1719464;82;21362;-62
2022/01/05 04:13:56;;;;;;;4.78;4.28;;;;;;;11.68;58.74;97660.87;1720502;82;21013;-63
2022/01/05 04:16:22;;;;;;;4.78;4.10;;;;;;;11.69;58.75;97665.97;1720357;82;21045;-63
2022/01/05 04:18:49;;;;;;;4.75;4.25;;;;;;;11.69;58.75;97673.16;1712005;82;21128;-62
2022/01/05 04:21:15;;;;;;;4.30;3.90;;;;;;;11.70;58.75;97666.78;1707281;82;21001;-62
2022/01/05 04:23:42;;;;;;;4.72;4.03;;;;;;;11.70;58.74;97666.25;1706411;82;21045;-63
2022/01/05 04:26:08;;;;;;;5.37;4.00;;;;;;;11.70;58.73;97664.13;1674387;84;21061;-61
2022/01/05 04:28:35;;;;;;;5.17;3.83;;;;;;;11.70;58.72;97677.42;1702205;83;21760;-62
2022/01/05 04:31:02;;;;;;;4.83;4.00;;;;;;;11.71;58.73;97675.87;1702674;83;21211;-62
2022/01/05 04:33:28;;;;;;;5.65;4.37;;;;;;;11.71;58.73;97675.06;1712305;83;21143;-61
2022/01/05 04:35:54;;;;;;;5.85;4.28;;;;;;;11.71;58.73;97681.72;1704411;83;21049;-62
2022/01/05 04:38:21;;;;;;;5.05;4.15;;;;;;;11.72;58.71;97681.99;1689604;84;21551;-62
2022/01/05 04:40:47;;;;;;;5.25;4.15;;;;;;;11.72;58.69;97701.94;1675962;84;21035;-62
2022/01/05 04:43:14;;;;;;;4.72;3.90;;;;;;;11.72;58.71;97700.08;1693415;84;21161;-63
2022/01/05 04:45:40;;;;;;;4.35;3.77;;;;;;;11.73;58.72;97707.57;1677749;84;21074;-62
2022/01/05 04:48:08;;;;;;;4.42;3.83;;;;;;;11.72;58.69;97693.44;1692453;84;21062;-63
2022/01/05 04:50:35;;;;;;;5.00;4.30;;;;;;;11.74;58.69;97701.20;1678022;84;21057;-62
2022/01/05 04:53:01;;;;;;;5.05;3.92;;;;;;;11.74;58.68;97683.41;1679198;84;21052;-63
2022/01/05 04:55:27;;;;;;;5.55;4.95;;;;;;;11.74;58.68;97681.25;1680094;84;23355;-63
2022/01/05 04:57:54;;;;;;;4.28;3.87;;;;;;;11.73;58.68;97692.41;1672230;85;21060;-62
2022/01/05 05:00:20;;;;;;;5.12;4.08;;;;;;;11.75;58.70;97708.16;1723432;82;21042;-63
2022/01/05 05:02:48;;;;;;;4.70;4.05;;;;;;;11.75;58.70;97690.86;1730548;82;21031;-63
2022/01/05 05:05:15;;;;;;;4.55;3.83;;;;;;;11.74;58.67;97686.06;1696565;83;21041;-63
2022/01/05 05:07:41;;;;;;;5.40;4.00;;;;;;;11.75;58.70;97675.70;1709414;82;21139;-63
2022/01/05 05:10:08;;;;;;;4.78;4.22;;;;;;;11.74;58.67;97674.09;1732204;82;21042;-62
2022/01/05 05:12:35;;;;;;;5.58;4.80;;;;;;;11.75;58.71;97673.58;1729254;82;21545;-64
2022/01/05 05:15:01;;;;;;;5.42;4.33;;;;;;;11.75;58.70;97688.20;1738524;82;21010;-63
2022/01/05 05:17:29;;;;;;;5.72;4.42;;;;;;;11.75;58.68;97700.98;1694811;82;20993;-63
2022/01/05 05:19:56;;;;;;;4.90;4.40;;;;;;;11.76;58.70;97685.81;1697837;82;21511;-63
2022/01/05 05:22:23;;;;;;;5.00;3.87;;;;;;;11.76;58.71;97704.44;1695231;82;21690;-63
2022/01/05 05:24:50;;;;;;;4.95;4.22;;;;;;;11.76;58.70;97691.14;1724033;82;21108;-63
2022/01/05 05:27:16;;;;;;;5.33;4.35;;;;;;;11.73;58.71;97700.39;1728226;82;21104;-63
2022/01/05 05:29:42;;;;;;;6.58;4.53;;;;;;;11.76;58.70;97685.32;1696400;82;21540;-64
2022/01/05 05:32:09;;;;;;;5.22;4.67;;;;;;;11.77;58.70;97704.75;1736438;82;21491;-64
2022/01/05 05:34:36;;;;;;;4.30;3.90;;;;;;;11.77;58.71;97700.75;1722738;82;21062;-62
2022/01/05 05:37:02;;;;;;;5.20;4.17;;;;;;;11.77;58.71;97708.73;1724960;82;21055;-62
2022/01/05 05:39:28;;;;;;;4.97;4.37;;;;;;;11.76;58.71;97710.59;1721248;82;21105;-64
2022/01/05 05:41:55;;;;;;;4.65;4.08;;;;;;;11.77;58.70;97718.05;1723804;82;21589;-62
2022/01/05 05:44:21;;;;;;;5.28;4.78;;;;;;;11.78;58.71;97728.97;1724296;82;21206;-61
2022/01/05 05:46:48;;;;;;;4.37;3.92;;;;;;;11.78;58.70;97725.81;1731176;80;21051;-62
2022/01/05 05:49:14;;;;;;;4.17;3.77;;;;;;;11.78;58.68;97743.59;1690286;82;21036;-62
2022/01/05 05:51:42;;;;;;;4.55;3.98;;;;;;;11.78;58.70;97734.28;1723372;82;21014;-62
2022/01/05 05:54:08;;;;;;;4.75;4.25;;;;;;;11.79;58.71;97730.60;1687168;83;21093;-63
2022/01/05 05:56:35;;;;;;;5.00;4.10;;;;;;;11.79;58.70;97743.38;1720125;82;21109;-63
2022/01/05 05:59:01;;;;;;;4.67;4.25;;;;;;;11.79;58.69;97741.25;1697563;83;21014;-63
2022/01/05 06:01:29;;;;;;;4.80;4.30;;;;;;;11.80;58.70;97742.36;1715390;82;21003;-63
2022/01/05 06:03:56;;;;;;;4.87;4.22;;;;;;;11.80;58.70;97744.18;1682441;83;21045;-62
2022/01/05 06:06:22;;;;;;;4.70;4.17;;;;;;;11.80;58.69;97758.32;1717949;82;21104;-64
2022/01/05 06:08:49;;;;;;;5.35;4.42;;;;;;;11.80;58.67;97741.03;1719302;82;23154;-62
2022/01/05 06:11:15;;;;;;;4.83;4.00;;;;;;;11.82;58.68;97752.78;1737205;82;21074;-62
2022/01/05 06:13:42;;;;;;;4.58;3.83;;;;;;;11.80;58.68;97762.31;1738076;81;21034;-63
2022/01/05 06:16:08;;;;;;;6.92;4.70;;;;;;;11.82;58.68;97750.12;1720634;82;21098;-62
2022/01/05 06:18:35;;;;;;;5.72;4.55;;;;;;;11.79;58.69;97745.23;1721171;81;21137;-63
2022/01/05 06:21:01;;;;;;;4.28;3.83;;;;;;;11.83;58.67;97759.70;1684535;84;23319;-63
2022/01/05 06:23:27;;;;;;;4.95;4.30;;;;;;;11.82;58.68;97751.45;1686987;83;21003;-63
2022/01/05 06:25:53;;;;;;;4.83;4.33;;;;;;;11.83;58.68;97754.39;1697475;83;21089;-63
2022/01/05 06:28:20;;;;;;;4.30;3.90;;;;;;;11.84;58.70;97767.16;1688077;83;21017;-62
2022/01/05 06:30:46;;;;;;;4.15;3.75;;;;;;;11.85;58.69;97763.48;1687442;83;21616;-63
2022/01/05 06:33:13;;;;;;;4.03;3.62;;;;;;;11.85;58.67;97755.50;1691487;83;21149;-62
2022/01/05 06:35:39;;;;;;;4.17;3.77;;;;;;;11.85;58.69;97761.63;1700983;82;21002;-62
2022/01/05 06:38:06;;;;;;;4.95;4.35;;;;;;;11.86;58.67;97771.73;1731743;82;21015;-63
2022/01/05 06:40:32;;;;;;;4.90;4.17;;;;;;;11.86;58.69;97770.41;1718373;82;22126;-60
2022/01/05 06:43:00;;;;;;;4.20;3.55;;;;;;;11.87;58.69;97720.97;1724402;82;21101;-60
2022/01/05 06:45:26;;;;;;;5.30;4.05;;;;;;;11.90;59.45;97733.87;1693204;83;21069;-63
2022/01/05 06:47:53;;;;;;;5.15;3.77;;;;;;;11.96;62.50;97794.16;1680152;84;21042;-64
2022/01/05 06:50:20;;;;;;;5.33;3.58;;;;;;;12.04;62.08;97784.25;1730606;81;21542;-64
2022/01/05 06:52:46;;;;;;;6.80;4.25;;;;;;;12.10;62.30;97802.78;1694253;84;21030;-63
2022/01/05 06:55:12;;;;;;;6.05;4.05;;;;;;;12.14;64.63;97803.95;1684338;82;21061;-63
2022/01/05 06:57:41;;;;;;;6.78;4.22;;;;;;;12.18;66.14;97793.66;1721932;81;21085;-61
2022/01/05 07:00:11;;;;;;;5.60;4.33;;;;;;;12.22;66.58;97809.47;1740435;81;21546;-63
2022/01/05 07:02:37;;;;;;;5.75;3.90;;;;;;;12.25;67.10;97801.58;1686135;83;21068;-63
2022/01/05 07:05:05;;;;;;;6.25;4.25;;;;;;;12.26;67.19;97805.32;1730144;82;21580;-61
2022/01/05 07:07:31;;;;;;;5.05;3.80;;;;;;;12.28;67.21;97811.75;1728590;82;21042;-62
2022/01/05 07:09:58;;;;;;;6.83;4.47;;;;;;;12.35;67.08;97799.97;1686335;83;21220;-61
2022/01/05 07:12:24;;;;;;;5.90;3.75;;;;;;;12.46;66.72;97810.38;1688234;82;21561;-62
2022/01/05 07:14:51;;;;;;;5.35;3.75;;;;;;;12.47;66.59;97809.85;1715980;82;21108;-63
2022/01/05 07:17:18;;;;;;;5.72;3.90;;;;;;;12.46;66.45;97814.37;1716446;81;21043;-63
2022/01/05 07:19:45;;;;;;;6.70;4.58;;;;;;;12.47;66.23;97824.50;1683440;83;21572;-62
2022/01/05 07:22:11;;;;;;;7.55;4.22;;;;;;;12.48;66.01;97828.80;1729465;82;21062;-62
2022/01/05 07:24:38;;;;;;;5.12;3.87;;;;;;;12.48;65.73;97837.59;1741008;82;21519;-62
2022/01/05 07:27:05;;;;;;;6.03;4.45;;;;;;;12.48;65.45;97828.80;1720063;81;21125;-61
2022/01/05 07:29:32;;;;;;;5.53;3.65;;;;;;;12.49;65.17;97843.73;1687457;83;20998;-61
2022/01/05 07:31:58;;;;;;;6.00;3.70;;;;;;;12.48;64.95;97830.13;1686252;83;21636;-63
2022/01/05 07:34:25;;;;;;;4.58;3.87;;;;;;;12.49;64.74;97842.39;1725550;82;21159;-63
2022/01/05 07:36:51;;;;;;;6.22;4.47;;;;;;;12.49;64.51;97846.39;1731903;80;21491;-61
2022/01/05 07:39:18;;;;;;;5.45;4.00;;;;;;;12.49;64.30;97839.20;1734269;80;21062;-62
2022/01/05 07:41:44;;;;;;;4.67;3.72;;;;;;;12.49;64.08;97835.73;1730061;80;21541;-61
2022/01/05 07:44:11;;;;;;;4.90;3.83;;;;;;;12.49;63.91;97847.72;1707062;83;21037;-63
2022/01/05 07:46:37;;;;;;;6.85;4.22;;;;;;;12.49;63.72;97849.86;1705631;83;21054;-62
2022/01/05 07:49:05;;;;;;;5.70;4.00;;;;;;;12.49;63.56;97845.05;1700246;83;21101;-61
2022/01/05 07:51:32;;;;;;;4.72;3.90;;;;;;;12.49;63.41;97839.73;1687986;84;21018;-61
2022/01/05 07:54:01;;;;;;;4.60;3.75;;;;;;;12.49;63.26;97847.19;1721880;82;21038;-62
2022/01/05 07:56:28;;;;;;;4.45;3.90;;;;;;;12.49;63.11;97841.87;1696522;83;21085;-63
2022/01/05 07:58:54;;;;;;;5.50;3.80;;;;;;;12.49;62.95;97851.72;1692426;82;21094;-62
2022/01/05 08:01:21;;;;;;;5.28;4.33;;;;;;;12.50;62.84;97860.81;1691193;83;21058;-63
2022/01/05 08:03:48;;;;;;;6.30;3.72;;;;;;;12.50;62.71;97865.34;1730654;82;21068;-61
2022/01/05 08:06:14;;;;;;;4.90;3.85;;;;;;;12.51;62.59;97865.62;1743211;81;21058;-61
2022/01/05 08:08:42;;;;;;;4.90;3.95;;;;;;;12.51;62.47;97871.75;1735590;82;21015;-61
2022/01/05 08:11:11;;;;;;;4.37;3.95;;;;;;;12.51;62.36;97884.26;1694455;83;21173;-62
2022/01/05 08:13:38;;;;;;;5.55;3.75;;;;;;;12.52;62.24;97877.91;1705319;82;21010;-62
2022/01/05 08:16:04;;;;;;;3.77;3.42;;;;;;;12.52;62.13;97893.89;1705712;82;21532;-63
2022/01/05 08:18:31;;;;;;;5.58;3.83;;;;;;;12.53;62.06;97897.63;1706015;83;21116;-65
2022/01/05 08:20:57;;;;;;;4.35;3.80;;;;;;;12.54;61.92;97902.47;1696320;83;21097;-63
2022/01/05 08:23:24;;;;;;;5.80;3.90;;;;;;;12.55;61.81;97903.55;1739155;82;21808;-62
2022/01/05 08:25:51;;;;;;;6.42;4.10;;;;;;;12.53;61.69;97894.97;1729481;81;20991;-63
2022/01/05 08:28:17;;;;;;;6.45;4.35;;;;;;;12.58;61.59;97904.44;1729054;82;21609;-62
2022/01/05 08:30:45;;;;;;;5.12;3.95;;;;;;;12.60;61.51;97897.56;1700754;83;21081;-63
2022/01/05 08:33:13;;;;;;;4.72;4.03;;;;;;;12.62;61.40;97906.66;1737881;82;21015;-63
2022/01/05 08:35:40;;;;;;;4.30;3.52;;;;;;;12.63;61.31;97903.75;1731827;82;21761;-62
2022/01/05 08:38:07;;;;;;;8.03;4.45;;;;;;;12.65;61.22;97904.36;1741145;82;21050;-63
2022/01/05 08:40:34;;;;;;;5.35;4.45;;;;;;;12.67;61.11;97891.63;1739779;81;21074;-62
2022/01/05 08:43:03;;;;;;;3.95;3.17;;;;;;;12.69;61.03;97888.22;1703516;83;21054;-62
2022/01/05 08:45:29;;;;;;;5.12;3.80;;;;;;;12.73;60.88;97888.58;1699599;83;21082;-63
2022/01/05 08:47:56;;;;;;;3.92;3.42;;;;;;;12.76;60.73;97881.45;1703161;83;21965;-62
2022/01/05 08:50:24;;;;;;;4.47;4.00;;;;;;;12.79;60.58;97881.00;1731767;80;21013;-62
2022/01/05 08:52:52;;;;;;;5.40;3.70;;;;;;;12.83;60.41;97884.03;1733080;82;21073;-63
2022/01/05 08:55:21;;;;;;;4.80;3.65;;;;;;;12.84;60.25;97895.77;1741534;82;21062;-62
2022/01/05 08:57:47;;;;;;;4.60;3.77;;;;;;;12.87;60.21;97895.33;1741306;81;21065;-64
2022/01/05 09:00:15;;;;;;;5.55;3.58;;;;;;;12.88;60.09;97894.27;1740215;80;21202;-62
2022/01/05 09:02:41;;;;;;;3.65;3.35;;;;;;;12.90;60.00;97884.72;1757659;80;21085;-62
2022/01/05 09:05:08;;;;;;;3.87;3.25;;;;;;;12.92;59.96;97898.63;1747269;80;21017;-62
2022/01/05 09:07:35;;;;;;;4.50;3.70;;;;;;;12.94;59.84;97892.05;1749594;81;21015;-63
2022/01/05 09:10:04;;;;;;;3.90;3.40;;;;;;;12.98;59.76;97893.21;1738563;81;21534;-64
2022/01/05 09:12:32;;;;;;;3.72;3.42;;;;;;;13.02;59.59;97894.91;1744336;80;21190;-64
2022/01/05 09:14:58;;;;;;;4.97;3.70;;;;;;;13.07;59.41;97895.54;1755346;81;21026;-65
2022/01/05 09:17:26;;;;;;;6.37;3.87;;;;;;;13.11;59.26;97896.17;1739920;81;21485;-64
2022/01/05 09:19:52;;;;;;;4.42;3.77;;;;;;;13.17;59.11;97893.11;1733645;81;21041;-63
2022/01/05 09:22:20;;;;;;;4.78;3.20;;;;;;;13.24;58.92;97904.48;1741388;81;21367;-62
2022/01/05 09:24:46;;;;;;;4.50;3.47;;;;;;;13.28;58.77;97897.65;1719755;82;21067;-65
2022/01/05 09:27:13;;;;;;;6.12;3.85;;;;;;;13.36;58.61;97889.86;1713192;82;21069;-64
2022/01/05 09:29:40;;;;;;;5.20;3.67;;;;;;;13.42;58.47;97895.59;1711966;82;21052;-63
2022/01/05 09:32:09;;;;;;;5.75;3.00;;;;;;;13.47;58.32;97891.72;1715236;82;21077;-63
2022/01/05 09:34:37;;;;;;;4.33;2.98;;;;;;;13.54;58.15;97900.43;1705856;82;21056;-64
2022/01/05 09:37:12;;;;;;;3.90;3.50;;;;;;;13.60;58.03;97908.03;1711074;82;21746;-64
2022/01/05 09:42:17;;;;;;;4.03;3.52;;;;;;;13.70;57.78;97911.45;1699661;82;21548;-63
2022/01/05 09:44:45;;;;;;;4.03;3.52;;;;;;;13.74;57.62;97915.27;1702064;82;21068;-66
2022/01/05 09:47:23;;;;;;;4.05;3.30;;;;;;;13.78;57.54;97911.62;1717504;82;21028;-62
2022/01/05 09:50:03;;;;;;;3.62;3.25;;;;;;;13.80;57.43;97915.66;1709238;82;21597;-63
2022/01/05 09:52:34;;;;;;;4.08;3.25;;;;;;;13.85;57.34;97930.97;1706491;82;21022;-64
2022/01/05 09:55:01;;;;;;;3.92;3.52;;;;;;;13.88;57.24;97937.19;1717125;82;21069;-64
2022/01/05 09:57:29;;;;;;;4.10;3.52;;;;;;;13.91;57.17;97942.87;1708300;82;21072;-66
2022/01/05 09:59:56;;;;;;;3.55;3.02;;;;;;;13.95;57.11;97936.02;1699579;82;21017;-64
2022/01/05 10:02:23;;;;;;;4.20;3.20;;;;;;;14.01;57.08;97944.15;1690343;83;21267;-63
2022/01/05 10:04:49;;;;;;;4.22;3.17;;;;;;;14.03;57.03;97950.06;1702448;82;21316;-63
2022/01/05 10:07:15;;;;;;;3.98;3.58;;;;;;;14.05;56.86;97952.78;1707160;82;21077;-63
2022/01/05 10:09:44;;;;;;;3.65;3.10;;;;;;;14.07;56.74;97958.70;1731061;82;21398;-62
2022/01/05 10:12:13;;;;;;;3.52;3.22;;;;;;;14.09;56.61;97969.15;1727483;80;21014;-63
2022/01/05 10:14:47;;;;;;;3.83;3.12;;;;;;;14.11;56.53;97971.06;1731524;82;21047;-64
2022/01/05 10:17:25;;;;;;;3.55;3.25;;;;;;;14.12;56.47;97980.70;1726335;81;21043;-63
2022/01/05 10:20:06;;;;;;;3.45;3.12;;;;;;;14.12;56.44;97976.17;1734941;82;21026;-63
2022/01/05 10:22:41;;;;;;;4.10;3.47;;;;;;;14.12;56.39;97982.05;1689436;83;21109;-63
2022/01/05 10:25:15;;;;;;;4.85;3.62;;;;;;;14.11;56.41;97981.73;1702051;82;21050;-63
2022/01/05 10:27:41;;;;;;;;;;;;;;;14.13;56.43;97984.45;1690592;83;21125;-62
2022/01/05 10:30:12;;;;;;;3.62;3.10;;;;;;;14.14;56.43;97986.63;1684351;84;20182;-63
2022/01/05 10:32:38;;;;;;;3.85;3.33;;;;;;;14.14;56.46;97979.95;1686241;84;21015;-64
2022/01/05 10:35:20;;;;;;;4.12;3.20;;;;;;;14.19;56.47;97987.25;1688973;84;21093;-64
2022/01/05 10:38:00;;;;;;;4.20;3.60;;;;;;;14.23;56.57;97985.20;1687813;84;21091;-63
2022/01/05 10:40:26;;;;;;;3.37;3.05;;;;;;;14.27;56.62;97981.00;1692065;84;21128;-64
2022/01/05 10:42:55;;;;;;;3.30;3.00;;;;;;;14.32;56.56;97984.33;1699269;83;21015;-63
2022/01/05 10:45:47;;;;;;;3.92;3.30;;;;;;;14.34;56.36;97992.91;1697001;83;21065;-64
2022/01/05 10:48:19;;;;;;;3.75;3.30;;;;;;;14.36;56.25;97985.48;1685772;84;21054;-62
2022/01/05 10:50:48;;;;;;;3.90;3.22;;;;;;;14.39;56.10;97976.17;1687027;83;21129;-65
2022/01/05 10:53:18;;;;;;;3.75;3.37;;;;;;;14.41;56.03;97979.41;1686223;83;21091;-62
2022/01/05 10:55:45;;;;;;;3.58;3.27;;;;;;;14.43;55.99;97971.47;1701778;82;21055;-64
2022/01/05 10:58:15;;;;;;;3.55;3.10;;;;;;;14.47;56.03;97974.48;1689343;84;21046;-63
2022/01/05 11:00:50;;;;;;;3.77;3.35;;;;;;;14.53;56.14;97977.02;1692876;84;21042;-63
2022/01/05 11:03:39;;;;;;;4.08;2.92;;;;;;;14.60;56.38;97976.89;1696253;84;21090;-63
2022/01/05 11:06:17;;;;;;;3.30;3.00;;;;;;;14.70;56.39;97977.11;1697166;83;21657;-64
2022/01/05 11:09:00;;;;;;;4.53;3.30;;;;;;;14.79;56.37;97980.20;1699749;83;21724;-64
2022/01/05 11:12:53;;;;;;;3.62;3.12;;;;;;;14.96;56.09;97982.13;1882777;74;28505;-64
2022/01/05 11:15:31;;;;;;;3.30;3.00;;;;;;;14.97;55.91;97993.92;1850245;77;21072;-62
2022/01/05 11:18:18;;;;;;;4.03;3.45;;;;;;;15.00;55.72;98002.79;1843784;75;21199;-63
2022/01/05 11:20:52;;;;;;;3.77;3.05;;;;;;;15.02;55.61;98011.38;1854750;77;20949;-63
2022/01/05 11:23:20;;;;;;;3.47;2.80;;;;;;;15.03;55.53;98019.70;1849559;77;20961;-64
2022/01/05 11:25:47;;;;;;;3.52;3.10;;;;;;;15.04;55.46;98014.63;1853955;77;21353;-64
2022/01/05 11:28:15;;;;;;;3.90;3.30;;;;;;;15.04;55.42;98019.98;1840281;77;21033;-64
2022/01/05 11:30:43;;;;;;;3.35;2.95;;;;;;;15.05;55.37;98024.82;1842469;77;21132;-66
2022/01/05 11:33:10;;;;;;;3.30;3.00;;;;;;;15.05;55.34;98018.94;1835706;77;21029;-64
2022/01/05 11:35:37;;;;;;;3.47;3.15;;;;;;;15.07;55.28;98025.39;1836247;77;21457;-64
2022/01/05 11:38:04;;;;;;;3.75;3.10;;;;;;;15.06;55.21;98024.56;1858682;77;21068;-64
2022/01/05 11:40:33;;;;;;;3.55;2.85;;;;;;;15.07;55.09;98031.55;1857468;77;20974;-64
2022/01/05 11:43:08;;;;;;;3.12;2.83;;;;;;;15.08;54.98;98025.66;1848012;77;23264;-65